Time;durP1;ratioP1;P1;durP2;ratioP2;P2;SDS_P1;SDS_P2;PMS_P1;PMS_P2;Temp;Humidity;BMP_temperature;BMP_pressure;BME280_temperature;BME280_humidity;BME280_pressure;Samples;Min_cycle;Max_cycle;Signal;HPM_P1;HPM_P2
2021/09/29 00:00:03;;;;;;;4.78;2.78;;;;;;;9.04;100.00;93308.50;2115476;28;20020;-79
2021/09/29 00:01:04;;;;;;;5.97;2.88;;;;;;;8.94;100.00;93311.28;2124042;27;20046;-79
2021/09/29 00:02:05;;;;;;;6.18;3.28;;;;;;;8.92;100.00;93308.25;2123952;27;20019;-78
2021/09/29 00:03:06;;;;;;;2.92;2.67;;;;;;;8.93;100.00;93317.75;2115611;28;20023;-80
2021/09/29 00:04:07;;;;;;;4.82;2.60;;;;;;;8.92;100.00;93311.69;2119529;27;20030;-78
2021/09/29 00:05:08;;;;;;;4.35;2.83;;;;;;;8.83;100.00;93314.84;2106915;28;20726;-79
2021/09/29 00:06:09;;;;;;;3.28;2.97;;;;;;;8.75;100.00;93308.06;2107217;28;20362;-82
2021/09/29 00:07:10;;;;;;;4.20;3.13;;;;;;;8.81;100.00;93316.38;2115196;28;20045;-80
2021/09/29 00:08:11;;;;;;;3.55;2.65;;;;;;;8.79;100.00;93321.34;2115420;28;20019;-83
2021/09/29 00:09:12;;;;;;;3.10;2.90;;;;;;;8.71;100.00;93318.00;2115514;28;20027;-79
2021/09/29 00:10:13;;;;;;;4.82;2.90;;;;;;;8.65;100.00;93321.50;2115494;28;20019;-80
2021/09/29 00:11:14;;;;;;;3.45;2.85;;;;;;;8.67;100.00;93314.63;2115496;28;20051;-79
2021/09/29 00:12:15;;;;;;;4.50;3.13;;;;;;;8.69;100.00;93309.66;2115363;28;20019;-80
2021/09/29 00:13:16;;;;;;;5.90;2.85;;;;;;;8.71;100.00;93317.25;2115506;28;20032;-79
2021/09/29 00:14:17;;;;;;;3.13;2.88;;;;;;;8.71;100.00;93307.34;2107144;28;20020;-80
2021/09/29 00:15:18;;;;;;;4.60;3.15;;;;;;;8.64;100.00;93317.31;2107063;28;20024;-78
2021/09/29 00:16:19;;;;;;;6.63;3.22;;;;;;;8.60;100.00;93311.28;2115653;28;20451;-81
2021/09/29 00:17:20;;;;;;;3.50;2.83;;;;;;;8.55;100.00;93315.88;2106995;28;20035;-79
2021/09/29 00:18:22;;;;;;;6.78;3.20;;;;;;;8.65;100.00;93308.19;2107267;28;20016;-80
2021/09/29 00:19:23;;;;;;;3.40;2.92;;;;;;;8.71;100.00;93311.94;2107271;28;20031;-78
2021/09/29 00:20:24;;;;;;;5.55;3.08;;;;;;;8.55;100.00;93315.13;2097336;28;20020;-80
2021/09/29 00:21:25;;;;;;;5.78;2.95;;;;;;;8.56;100.00;93314.00;2090443;28;20029;-79
2021/09/29 00:22:26;;;;;;;9.52;3.20;;;;;;;8.48;100.00;93317.91;2098568;28;20083;-81
2021/09/29 00:23:27;;;;;;;5.38;2.72;;;;;;;8.52;100.00;93314.03;2106973;28;20024;-80
2021/09/29 00:24:28;;;;;;;6.30;3.00;;;;;;;8.51;100.00;93312.50;2107558;28;20484;-79
2021/09/29 00:25:28;;;;;;;4.38;3.10;;;;;;;8.45;100.00;93308.03;2106739;28;20020;-79
2021/09/29 00:26:29;;;;;;;7.55;2.65;;;;;;;8.40;100.00;93311.13;2106975;28;20058;-77
2021/09/29 00:27:30;;;;;;;5.38;3.03;;;;;;;8.39;100.00;93313.03;2119512;27;20048;-80
2021/09/29 00:28:31;;;;;;;4.20;3.10;;;;;;;8.43;100.00;93305.78;2117270;27;20712;-78
2021/09/29 00:29:33;;;;;;;3.58;2.95;;;;;;;8.40;100.00;93314.53;2115238;28;20073;-78
2021/09/29 00:30:38;;;;;;;3.30;2.80;;;;;;;8.37;100.00;93310.00;2122017;27;20472;-80
2021/09/29 00:31:40;;;;;;;4.00;3.33;;;;;;;8.29;100.00;93311.19;2123697;27;20464;-78
2021/09/29 00:32:42;;;;;;;3.00;2.50;;;;;;;8.27;100.00;93310.84;2123728;27;20015;-78
2021/09/29 00:33:47;;;;;;;3.80;2.60;;;;;;;8.16;100.00;93310.94;2123673;27;20436;-81
2021/09/29 00:34:47;;;;;;;4.57;2.97;;;;;;;8.20;100.00;93311.66;2115911;27;20059;-77
2021/09/29 00:35:48;;;;;;;5.43;2.58;;;;;;;8.22;100.00;93320.03;2115324;28;20019;-79
2021/09/29 00:36:49;;;;;;;6.35;2.92;;;;;;;8.10;100.00;93317.84;2123784;27;20104;-81
2021/09/29 00:37:50;;;;;;;3.67;2.38;;;;;;;8.14;100.00;93320.47;2124188;27;20023;-80
2021/09/29 00:38:51;;;;;;;4.03;2.63;;;;;;;8.03;100.00;93313.34;2123612;27;20015;-77
2021/09/29 00:39:52;;;;;;;4.57;2.80;;;;;;;8.11;100.00;93318.59;2114299;28;20503;-78
2021/09/29 00:40:53;;;;;;;2.88;2.50;;;;;;;8.09;100.00;93327.00;2106719;28;20035;-80
2021/09/29 00:41:54;;;;;;;3.08;2.88;;;;;;;7.99;100.00;93322.50;2106945;28;20453;-79
2021/09/29 00:42:55;;;;;;;3.55;2.95;;;;;;;7.99;100.00;93319.84;2098279;28;20021;-79
2021/09/29 00:43:57;;;;;;;3.13;2.88;;;;;;;8.03;100.00;93324.00;2098519;28;20024;-80
2021/09/29 00:44:58;;;;;;;3.28;2.92;;;;;;;8.04;100.00;93322.09;2106661;28;20480;-80
2021/09/29 00:45:59;;;;;;;8.13;2.97;;;;;;;8.02;100.00;93329.69;2106823;28;20058;-79
2021/09/29 00:47:00;;;;;;;5.97;2.72;;;;;;;7.96;100.00;93323.31;2114823;28;20020;-80
2021/09/29 00:48:01;;;;;;;4.32;2.92;;;;;;;7.90;100.00;93333.63;2114585;28;20027;-79
2021/09/29 00:49:02;;;;;;;6.85;2.70;;;;;;;7.98;100.00;93331.63;2115130;28;20028;-78
2021/09/29 00:50:06;;;;;;;6.93;3.10;;;;;;;7.88;100.00;93333.25;2115329;28;20076;-78
2021/09/29 00:51:09;;;;;;;5.03;3.05;;;;;;;7.98;100.00;93326.31;2114659;28;20027;-81
2021/09/29 00:52:10;;;;;;;3.50;3.05;;;;;;;8.03;100.00;93324.00;2115120;28;20376;-78
2021/09/29 00:53:11;;;;;;;7.18;2.90;;;;;;;8.18;100.00;93331.84;2115596;28;20028;-80
2021/09/29 00:54:12;;;;;;;5.53;2.88;;;;;;;8.12;100.00;93326.22;2115617;28;20484;-78
2021/09/29 00:55:13;;;;;;;6.35;2.95;;;;;;;8.17;100.00;93327.69;2115005;28;20077;-79
2021/09/29 00:56:15;;;;;;;4.13;2.97;;;;;;;8.24;100.00;93330.28;2106559;28;20028;-80
2021/09/29 00:57:16;;;;;;;3.10;2.80;;;;;;;8.26;100.00;93327.97;2115195;28;20451;-83
2021/09/29 00:58:17;;;;;;;2.88;2.67;;;;;;;8.33;100.00;93328.66;2115488;28;20049;-80
2021/09/29 00:59:18;;;;;;;4.82;3.00;;;;;;;8.50;100.00;93329.66;2115017;28;20020;-79
2021/09/29 01:00:19;;;;;;;3.45;2.80;;;;;;;8.50;100.00;93316.34;2115071;28;20462;-79
2021/09/29 01:01:20;;;;;;;4.82;2.97;;;;;;;8.41;100.00;93321.38;2115083;28;20027;-82
2021/09/29 01:02:21;;;;;;;3.05;2.80;;;;;;;8.45;100.00;93316.78;2098273;28;20054;-81
2021/09/29 01:03:24;;;;;;;3.20;2.90;;;;;;;8.50;100.00;93323.56;2106745;28;20016;-80
2021/09/29 01:04:27;;;;;;;3.90;2.92;;;;;;;8.49;100.00;93322.81;2098334;28;20025;-80
2021/09/29 01:05:29;;;;;;;3.45;3.20;;;;;;;8.51;100.00;93325.81;2106565;28;20023;-79
2021/09/29 01:06:57;;;;;;;3.17;2.97;;;;;;;8.55;100.00;93321.22;2114920;28;20019;-80
2021/09/29 01:08:43;;;;;;;3.17;2.97;;;;;;;8.55;100.00;93323.13;2100982;28;20475;-79
2021/09/29 01:09:59;;;;;;;4.10;2.97;;;;;;;8.54;100.00;93324.28;2099727;28;20043;-81
2021/09/29 01:11:08;;;;;;;3.45;3.15;;;;;;;8.51;100.00;93320.50;2114709;28;20054;-79
2021/09/29 01:12:12;;;;;;;3.85;3.10;;;;;;;8.55;100.00;93323.88;2107899;28;20025;-79
2021/09/29 01:13:32;;;;;;;5.85;3.03;;;;;;;8.56;100.00;93330.00;2106888;28;20112;-79
2021/09/29 01:15:01;;;;;;;5.53;3.05;;;;;;;8.56;100.00;93325.41;2115101;28;20015;-79
2021/09/29 01:16:06;;;;;;;2.95;2.60;;;;;;;8.56;100.00;93320.09;2115555;28;20051;-81
2021/09/29 01:17:08;;;;;;;2.75;2.45;;;;;;;8.62;100.00;93316.97;2114875;28;20411;-80
2021/09/29 01:18:09;;;;;;;6.97;3.00;;;;;;;8.73;100.00;93318.34;2114957;28;20452;-79
2021/09/29 01:19:49;;;;;;;4.93;2.80;;;;;;;8.69;100.00;93311.56;2114954;28;20015;-81
2021/09/29 01:20:58;;;;;;;3.03;2.70;;;;;;;8.62;100.00;93316.97;2088814;28;20743;-79
2021/09/29 01:22:08;;;;;;;5.03;3.10;;;;;;;8.63;100.00;93316.56;2115487;28;20016;-79
2021/09/29 01:23:09;;;;;;;5.40;2.92;;;;;;;8.50;100.00;93323.56;2114762;28;20019;-81
2021/09/29 01:24:35;;;;;;;5.05;2.97;;;;;;;8.53;100.00;93328.13;2114889;28;20020;-81
2021/09/29 01:26:08;;;;;;;4.65;2.88;;;;;;;8.50;100.00;93327.00;2122356;27;20068;-78
2021/09/29 01:27:11;;;;;;;3.55;2.83;;;;;;;8.57;100.00;93315.50;2119701;27;20035;-79
2021/09/29 01:28:14;;;;;;;4.00;2.70;;;;;;;8.53;100.00;93320.13;2114952;27;20048;-79
2021/09/29 01:29:19;;;;;;;4.53;3.00;;;;;;;8.61;100.00;93323.47;2098078;28;20456;-80
2021/09/29 01:30:20;;;;;;;4.57;3.17;;;;;;;8.66;100.00;93326.44;2091096;28;20029;-78
2021/09/29 01:31:23;;;;;;;3.85;3.53;;;;;;;8.65;100.00;93321.50;2106256;28;20077;-80
2021/09/29 01:32:24;;;;;;;5.78;3.00;;;;;;;8.54;100.00;93330.38;2106750;28;20647;-80
2021/09/29 01:33:28;;;;;;;3.20;3.00;;;;;;;8.64;100.00;93331.41;2109043;27;20030;-80
2021/09/29 01:34:30;;;;;;;3.55;2.92;;;;;;;8.57;100.00;93323.50;2118411;27;20028;-80
2021/09/29 01:35:31;;;;;;;4.85;3.20;;;;;;;8.48;100.00;93325.88;2114775;28;20102;-80
2021/09/29 01:36:32;;;;;;;3.63;3.00;;;;;;;8.47;100.00;93327.03;2115483;28;20068;-79
2021/09/29 01:37:33;;;;;;;9.38;3.67;;;;;;;8.40;100.00;93325.19;2115510;28;20518;-78
2021/09/29 01:38:38;;;;;;;4.78;3.38;;;;;;;8.29;100.00;93322.59;2115433;28;20065;-77
2021/09/29 01:39:40;;;;;;;7.57;3.55;;;;;;;8.17;100.00;93327.69;2114652;28;20518;-79
2021/09/29 01:40:41;;;;;;;4.35;2.92;;;;;;;8.19;100.00;93331.44;2106563;28;20027;-78
2021/09/29 01:41:42;;;;;;;5.45;3.40;;;;;;;8.14;100.00;93334.53;2114570;28;20099;-79
2021/09/29 01:42:43;;;;;;;5.93;3.13;;;;;;;8.18;100.00;93321.97;2118917;27;20019;-78
2021/09/29 01:43:44;;;;;;;4.82;3.33;;;;;;;8.27;100.00;93324.16;2114632;28;20465;-78
2021/09/29 01:44:45;;;;;;;3.80;3.13;;;;;;;8.23;100.00;93328.75;2106339;28;20553;-81
2021/09/29 01:45:47;;;;;;;4.55;3.00;;;;;;;8.29;100.00;93321.84;2123324;27;20084;-80
2021/09/29 01:46:48;;;;;;;3.50;3.20;;;;;;;8.32;100.00;93326.38;2123672;27;20114;-79
2021/09/29 01:47:49;;;;;;;4.30;3.80;;;;;;;8.29;100.00;93332.50;2123203;27;20023;-80
2021/09/29 01:48:54;;;;;;;3.35;3.05;;;;;;;8.37;100.00;93335.88;2114771;27;20027;-79
2021/09/29 01:50:00;;;;;;;4.13;3.03;;;;;;;8.21;100.00;93336.38;2123251;27;20030;-77
2021/09/29 01:51:02;;;;;;;3.90;3.00;;;;;;;8.16;100.00;93329.56;2115592;27;20461;-77
2021/09/29 01:52:07;;;;;;;4.90;3.15;;;;;;;8.12;100.00;93330.75;2117972;27;20026;-80
2021/09/29 01:53:10;;;;;;;3.65;3.17;;;;;;;8.15;100.00;93336.06;2105784;28;20051;-80
2021/09/29 01:54:16;;;;;;;4.63;3.22;;;;;;;8.17;100.00;93335.69;2106587;28;20031;-77
2021/09/29 01:55:18;;;;;;;3.67;3.35;;;;;;;8.27;100.00;93332.91;2114721;28;20027;-77
2021/09/29 01:56:19;;;;;;;3.42;3.00;;;;;;;8.19;100.00;93333.38;2113868;28;20028;-79
2021/09/29 01:57:20;;;;;;;3.60;3.30;;;;;;;8.21;100.00;93329.16;2106250;28;20050;-80
2021/09/29 01:58:21;;;;;;;2.78;2.53;;;;;;;8.31;100.00;93335.53;2106721;28;20028;-82
2021/09/29 01:59:23;;;;;;;4.82;3.13;;;;;;;8.23;100.00;93331.44;2097785;28;20025;-78
2021/09/29 02:00:24;;;;;;;3.85;2.97;;;;;;;8.19;100.00;93334.13;2098254;28;20028;-76
2021/09/29 02:01:25;;;;;;;3.38;3.00;;;;;;;8.21;100.00;93336.38;2106838;28;20488;-80
2021/09/29 02:02:26;;;;;;;3.30;3.10;;;;;;;8.14;100.00;93341.78;2106732;28;20042;-80
2021/09/29 02:03:27;;;;;;;3.22;2.92;;;;;;;8.16;100.00;93334.91;2097758;28;20445;-78
2021/09/29 02:04:31;;;;;;;3.50;3.20;;;;;;;8.06;100.00;93333.09;2098504;28;20481;-80
2021/09/29 02:05:34;;;;;;;5.10;3.45;;;;;;;8.10;100.00;93333.81;2106852;28;20059;-80
2021/09/29 02:06:54;;;;;;;4.22;3.15;;;;;;;8.14;100.00;93336.47;2106952;28;20024;-80
2021/09/29 02:07:56;;;;;;;5.78;2.78;;;;;;;8.04;100.00;93338.06;2106565;28;20032;-80
2021/09/29 02:08:57;;;;;;;3.28;2.97;;;;;;;8.10;100.00;93343.72;2106489;28;20053;-79
2021/09/29 02:09:58;;;;;;;4.22;2.65;;;;;;;8.14;100.00;93337.22;2089583;28;20547;-80
2021/09/29 02:10:59;;;;;;;3.10;2.90;;;;;;;8.18;100.00;93347.84;2081298;28;20018;-79
2021/09/29 02:12:00;;;;;;;4.70;2.97;;;;;;;8.08;100.00;93347.53;2089523;28;20051;-81
2021/09/29 02:13:02;;;;;;;5.03;3.10;;;;;;;8.01;100.00;93349.50;2106220;28;20085;-77
2021/09/29 02:14:03;;;;;;;5.28;2.38;;;;;;;8.02;100.00;93327.78;2106114;28;20050;-81
2021/09/29 02:15:05;;;;;;;4.70;2.90;;;;;;;7.98;100.00;93342.28;2097837;28;20103;-79
2021/09/29 02:16:06;;;;;;;3.83;2.88;;;;;;;7.87;100.00;93336.31;2106257;28;20020;-80
2021/09/29 02:17:10;;;;;;;3.15;2.95;;;;;;;7.99;100.00;93333.13;2106051;28;20107;-78
2021/09/29 02:18:10;;;;;;;5.53;2.72;;;;;;;8.08;100.00;93331.56;2106250;28;20746;-78
2021/09/29 02:19:12;;;;;;;4.60;2.78;;;;;;;8.01;100.00;93336.19;2106773;28;20028;-79
2021/09/29 02:20:13;;;;;;;4.95;2.85;;;;;;;7.96;100.00;93336.59;2097780;28;20489;-79
2021/09/29 02:21:14;;;;;;;3.97;2.55;;;;;;;7.96;100.00;93340.03;2098253;28;20367;-82
2021/09/29 02:22:16;;;;;;;4.88;2.80;;;;;;;8.03;100.00;93345.31;2106755;28;20055;-80
2021/09/29 02:23:18;;;;;;;4.00;2.50;;;;;;;7.90;100.00;93333.63;2105960;28;20027;-79
2021/09/29 02:24:19;;;;;;;5.68;2.50;;;;;;;7.81;100.00;93335.94;2097925;28;20363;-81
2021/09/29 02:25:20;;;;;;;5.28;2.63;;;;;;;7.68;100.00;93340.22;2106345;28;20028;-80
2021/09/29 02:26:21;;;;;;;6.72;2.90;;;;;;;7.71;100.00;93336.78;2106890;28;20028;-79
2021/09/29 02:27:22;;;;;;;3.78;2.40;;;;;;;7.58;100.00;93337.25;2109760;28;20032;-78
2021/09/29 02:28:23;;;;;;;6.85;2.67;;;;;;;7.65;100.00;93338.38;2114486;28;20031;-82
2021/09/29 02:29:24;;;;;;;9.32;2.50;;;;;;;7.87;100.00;93339.72;2114607;28;20655;-79
2021/09/29 02:30:25;;;;;;;4.80;2.58;;;;;;;8.04;100.00;93332.75;2114615;28;20022;-79
2021/09/29 02:31:26;;;;;;;3.33;1.75;;;;;;;8.21;100.00;93336.38;2114481;28;20020;-81
2021/09/29 02:32:27;;;;;;;5.00;2.22;;;;;;;8.34;100.00;93342.75;2114372;28;20031;-78
2021/09/29 02:33:28;;;;;;;10.00;2.20;;;;;;;8.45;100.00;93337.31;2114517;28;20100;-79
2021/09/29 02:34:29;;;;;;;4.30;2.10;;;;;;;8.33;100.00;93339.31;2114531;28;20353;-81
2021/09/29 02:35:30;;;;;;;2.53;1.63;;;;;;;8.44;100.00;93338.50;2097791;28;20024;-78
2021/09/29 02:36:31;;;;;;;4.60;2.08;;;;;;;8.44;100.00;93335.81;2106106;28;20118;-80
2021/09/29 02:37:32;;;;;;;2.20;1.48;;;;;;;8.51;100.00;93336.47;2114328;28;20058;-80
2021/09/29 02:38:33;;;;;;;1.95;1.38;;;;;;;8.48;100.00;93337.31;2097650;28;20429;-78
2021/09/29 02:39:34;;;;;;;3.28;1.75;;;;;;;8.48;100.00;93337.31;2097662;28;20059;-82
2021/09/29 02:40:35;;;;;;;2.58;1.73;;;;;;;8.46;100.00;93336.16;2114492;28;20400;-78
2021/09/29 02:41:37;;;;;;;2.95;1.60;;;;;;;8.48;100.00;93339.22;2114422;28;20028;-79
2021/09/29 02:42:38;;;;;;;4.47;1.73;;;;;;;8.40;100.00;93343.09;2114373;28;20508;-81
2021/09/29 02:43:39;;;;;;;4.50;1.75;;;;;;;8.42;100.00;93338.88;2114391;28;20092;-79
2021/09/29 02:44:40;;;;;;;5.15;1.70;;;;;;;8.48;100.00;93344.53;2114442;28;20067;-81
2021/09/29 02:45:41;;;;;;;3.28;1.67;;;;;;;8.52;100.00;93343.34;2114380;28;20047;-81
2021/09/29 02:46:42;;;;;;;2.47;1.48;;;;;;;8.57;100.00;93342.16;2114354;28;20023;-79
2021/09/29 02:47:43;;;;;;;3.80;1.70;;;;;;;8.55;100.00;93352.44;2118696;28;20098;-78
2021/09/29 02:48:44;;;;;;;2.38;1.60;;;;;;;8.60;100.00;93348.59;2117901;28;20019;-79
2021/09/29 02:49:45;;;;;;;2.22;1.60;;;;;;;8.74;100.00;93353.78;2114645;28;20028;-80
2021/09/29 02:50:46;;;;;;;3.15;1.50;;;;;;;8.77;100.00;93336.97;2113826;28;20031;-81
2021/09/29 02:51:47;;;;;;;2.10;1.50;;;;;;;8.71;100.00;93339.34;2106050;28;20030;-80
2021/09/29 02:52:48;;;;;;;3.60;1.50;;;;;;;8.69;100.00;93340.88;2113940;28;20027;-79
2021/09/29 02:53:49;;;;;;;3.72;1.42;;;;;;;8.66;100.00;93347.00;2114333;28;20523;-79
2021/09/29 02:54:50;;;;;;;3.97;1.45;;;;;;;8.74;100.00;93343.88;2114451;28;20054;-81
2021/09/29 02:55:50;;;;;;;3.83;1.58;;;;;;;8.71;100.00;93342.00;2114094;28;20084;-80
2021/09/29 02:56:51;;;;;;;6.28;1.23;;;;;;;8.72;100.00;93340.84;2114321;28;20542;-78
2021/09/29 02:57:52;;;;;;;3.47;1.17;;;;;;;8.69;100.00;93338.22;2114248;28;20097;-78
2021/09/29 02:58:53;;;;;;;2.70;1.42;;;;;;;8.64;100.00;93339.41;2114292;28;20020;-79
2021/09/29 02:59:54;;;;;;;3.67;1.10;;;;;;;8.62;100.00;93344.38;2097431;28;20016;-78
2021/09/29 03:01:01;;;;;;;3.08;1.48;;;;;;;8.60;100.00;93338.69;2097689;28;20021;-79
2021/09/29 03:02:03;;;;;;;2.80;1.20;;;;;;;8.56;100.00;93351.31;2106571;28;20023;-78
2021/09/29 03:03:04;;;;;;;1.73;1.15;;;;;;;8.54;100.00;93341.03;2114232;28;20034;-80
2021/09/29 03:04:05;;;;;;;7.72;1.67;;;;;;;8.58;100.00;93347.09;2114260;28;20089;-80
2021/09/29 03:05:06;;;;;;;3.47;1.23;;;;;;;8.56;100.00;93349.41;2105879;28;20020;-79
2021/09/29 03:06:10;;;;;;;1.73;1.00;;;;;;;8.58;100.00;93347.09;2097913;28;20033;-80
2021/09/29 03:07:11;;;;;;;3.20;1.35;;;;;;;8.57;100.00;93347.47;2097838;28;20032;-79
2021/09/29 03:08:12;;;;;;;5.07;1.35;;;;;;;8.55;100.00;93347.09;2105718;28;20034;-80
2021/09/29 03:09:13;;;;;;;4.60;1.20;;;;;;;8.54;100.00;93341.03;2105908;28;20035;-81
2021/09/29 03:10:14;;;;;;;4.22;1.13;;;;;;;8.54;100.00;93351.69;2105955;28;20492;-79
2021/09/29 03:11:15;;;;;;;4.35;1.25;;;;;;;8.52;100.00;93354.00;2106817;28;20024;-78
2021/09/29 03:12:16;;;;;;;2.25;1.00;;;;;;;8.50;100.00;93355.53;2099121;28;20066;-80
2021/09/29 03:13:17;;;;;;;1.98;1.10;;;;;;;8.52;100.00;93363.91;2107419;28;20031;-78
2021/09/29 03:14:18;;;;;;;4.20;1.40;;;;;;;8.49;100.00;93351.38;2115870;28;20027;-78
2021/09/29 03:15:19;;;;;;;2.83;1.10;;;;;;;8.48;100.00;93353.28;2115862;28;20047;-78
2021/09/29 03:16:20;;;;;;;5.32;1.30;;;;;;;8.53;100.00;93357.41;2107418;28;20028;-80
2021/09/29 03:17:21;;;;;;;3.60;1.67;;;;;;;8.64;100.00;93357.28;2099104;28;20025;-78
2021/09/29 03:18:22;;;;;;;4.20;1.10;;;;;;;8.73;100.00;93354.91;2098927;28;20047;-79
2021/09/29 03:19:23;;;;;;;4.38;1.10;;;;;;;8.74;100.00;93361.78;2090713;28;20021;-79
2021/09/29 03:20:25;;;;;;;4.43;1.40;;;;;;;8.67;100.00;93362.59;2100773;28;20021;-78
2021/09/29 03:21:26;;;;;;;4.72;1.27;;;;;;;8.89;100.00;93363.13;2107439;28;20024;-79
2021/09/29 03:22:27;;;;;;;1.80;1.27;;;;;;;8.78;100.00;93365.13;2099039;28;20025;-79
2021/09/29 03:23:29;;;;;;;1.48;1.23;;;;;;;8.69;100.00;93357.63;2116950;27;20023;-79
2021/09/29 03:24:30;;;;;;;3.00;1.27;;;;;;;8.92;100.00;93361.56;2116463;28;20028;-78
2021/09/29 03:25:31;;;;;;;5.28;1.25;;;;;;;8.92;100.00;93369.56;2115834;28;20020;-78
2021/09/29 03:26:32;;;;;;;5.57;1.17;;;;;;;8.95;100.00;93368.75;2115714;28;20110;-80
2021/09/29 03:27:33;;;;;;;7.82;1.50;;;;;;;8.93;100.00;93368.41;2106650;28;20471;-78
2021/09/29 03:28:35;;;;;;;1.67;1.42;;;;;;;8.86;100.00;93365.81;2121727;27;20088;-78
2021/09/29 03:29:36;;;;;;;2.55;1.20;;;;;;;8.84;100.00;93371.56;2124899;27;20465;-79
2021/09/29 03:30:37;;;;;;;5.78;1.20;;;;;;;8.84;100.00;93363.56;2124903;27;20098;-80
2021/09/29 03:31:38;;;;;;;2.80;1.23;;;;;;;8.83;100.00;93367.38;2124226;27;20110;-80
2021/09/29 03:32:39;;;;;;;1.80;1.20;;;;;;;8.81;100.00;93369.69;2115623;28;20426;-78
2021/09/29 03:33:41;;;;;;;3.28;1.17;;;;;;;8.83;100.00;93367.38;2115926;28;20015;-79
2021/09/29 03:34:42;;;;;;;4.50;1.10;;;;;;;8.76;100.00;93370.88;2124364;27;20030;-81
2021/09/29 03:35:43;;;;;;;2.22;1.00;;;;;;;8.79;100.00;93375.41;2124934;27;20023;-80
2021/09/29 03:36:44;;;;;;;4.97;1.15;;;;;;;8.78;100.00;93373.13;2124158;27;20379;-80
2021/09/29 03:37:45;;;;;;;1.52;1.08;;;;;;;8.84;100.00;93384.88;2115695;28;20155;-78
2021/09/29 03:38:46;;;;;;;4.35;1.25;;;;;;;8.80;100.00;93379.59;2115640;28;20024;-81
2021/09/29 03:39:47;;;;;;;6.18;1.40;;;;;;;8.76;100.00;93376.19;2115747;28;20086;-80
2021/09/29 03:40:48;;;;;;;2.78;1.00;;;;;;;8.74;100.00;93375.09;2124058;27;20047;-80
2021/09/29 03:41:49;;;;;;;3.00;1.10;;;;;;;8.75;100.00;93372.03;2107194;28;20481;-78
2021/09/29 03:42:50;;;;;;;3.13;1.00;;;;;;;8.74;100.00;93372.44;2107254;28;20090;-78
2021/09/29 03:43:51;;;;;;;3.45;1.20;;;;;;;8.73;100.00;93379.66;2107736;28;20500;-78
2021/09/29 03:44:52;;;;;;;7.22;1.33;;;;;;;8.70;100.00;93377.03;2115734;28;20104;-78
2021/09/29 03:45:53;;;;;;;2.38;1.33;;;;;;;8.65;100.00;93380.91;2115719;27;20070;-80
2021/09/29 03:46:54;;;;;;;1.77;1.00;;;;;;;8.62;100.00;93386.25;2119059;27;20035;-80
2021/09/29 03:47:55;;;;;;;1.63;1.27;;;;;;;8.62;100.00;93378.28;2114849;28;20023;-80
2021/09/29 03:48:57;;;;;;;2.00;1.00;;;;;;;8.58;100.00;93376.38;2115653;28;20581;-81
2021/09/29 03:49:57;;;;;;;3.50;1.17;;;;;;;8.62;100.00;93384.34;2124138;27;20026;-79
2021/09/29 03:50:58;;;;;;;2.95;1.08;;;;;;;8.68;100.00;93376.66;2095101;28;20036;-83
2021/09/29 03:51:59;;;;;;;6.13;1.10;;;;;;;8.78;100.00;93381.91;2098925;28;20082;-78
2021/09/29 03:53:00;;;;;;;1.25;1.10;;;;;;;8.87;100.00;93386.75;2107704;28;20020;-80
2021/09/29 03:54:01;;;;;;;3.50;1.10;;;;;;;8.77;100.00;93383.03;2107040;28;20023;-79
2021/09/29 03:55:03;;;;;;;2.30;0.93;;;;;;;8.77;100.00;93383.03;2090488;28;20021;-77
2021/09/29 03:56:04;;;;;;;5.80;1.17;;;;;;;8.76;100.00;93381.53;2098836;28;20099;-79
2021/09/29 03:57:05;;;;;;;2.65;0.93;;;;;;;8.74;100.00;93381.19;2107887;28;20384;-81
2021/09/29 03:58:06;;;;;;;2.75;1.17;;;;;;;8.70;100.00;93382.38;2107543;28;20024;-80
2021/09/29 03:59:07;;;;;;;2.05;1.00;;;;;;;8.68;100.00;93380.09;2098683;28;20120;-78
2021/09/29 04:00:11;;;;;;;2.97;1.15;;;;;;;8.71;100.00;93387.31;2098798;28;20024;-79
2021/09/29 04:01:13;;;;;;;1.27;0.73;;;;;;;8.71;100.00;93381.97;2099182;28;20025;-81
2021/09/29 04:02:14;;;;;;;5.75;1.10;;;;;;;8.69;100.00;93381.63;2107101;28;20563;-79
2021/09/29 04:03:15;;;;;;;1.55;1.02;;;;;;;8.75;100.00;93379.28;2107015;28;20481;-79
2021/09/29 04:04:16;;;;;;;2.45;1.23;;;;;;;8.71;100.00;93389.97;2098698;28;20516;-79
2021/09/29 04:05:17;;;;;;;3.75;1.10;;;;;;;8.78;100.00;93392.56;2098798;28;20103;-79
2021/09/29 04:06:18;;;;;;;3.95;1.05;;;;;;;8.71;100.00;93386.53;2107257;28;20090;-79
2021/09/29 04:07:19;;;;;;;1.88;1.02;;;;;;;8.75;100.00;93395.25;2106821;28;20528;-80
2021/09/29 04:08:20;;;;;;;2.90;1.23;;;;;;;8.82;100.00;93389.84;2106725;28;20110;-81
2021/09/29 04:09:20;;;;;;;3.80;1.20;;;;;;;8.74;100.00;93399.84;2107086;28;20028;-81
2021/09/29 04:10:21;;;;;;;2.70;0.90;;;;;;;8.77;100.00;93390.28;2106998;28;20031;-79
2021/09/29 04:11:22;;;;;;;2.35;0.90;;;;;;;8.76;100.00;93388.78;2098758;28;20805;-80
2021/09/29 04:12:24;;;;;;;2.15;1.13;;;;;;;8.70;100.00;93382.38;2106979;28;20020;-80
2021/09/29 04:13:25;;;;;;;3.17;1.13;;;;;;;8.60;100.00;93380.56;2106842;28;20119;-80
2021/09/29 04:14:26;;;;;;;3.03;1.15;;;;;;;8.53;100.00;93387.47;2107026;28;20116;-82
2021/09/29 04:15:26;;;;;;;2.67;1.10;;;;;;;8.52;100.00;93382.56;2106940;28;20027;-79
2021/09/29 04:16:27;;;;;;;2.65;1.17;;;;;;;8.53;100.00;93378.72;2090330;28;20452;-78
2021/09/29 04:17:29;;;;;;;3.10;1.10;;;;;;;8.46;100.00;93381.47;2105105;28;20509;-78
2021/09/29 04:18:30;;;;;;;2.80;0.98;;;;;;;8.36;100.00;93393.69;2106776;28;20675;-80
2021/09/29 04:19:31;;;;;;;3.08;0.90;;;;;;;8.37;100.00;93381.91;2098509;28;20522;-78
2021/09/29 04:20:32;;;;;;;2.80;0.93;;;;;;;8.37;100.00;93392.56;2106857;28;20035;-79
2021/09/29 04:21:33;;;;;;;2.97;0.90;;;;;;;8.40;100.00;93388.38;2114966;28;20021;-78
2021/09/29 04:22:35;;;;;;;2.38;1.27;;;;;;;8.33;100.00;93394.47;2115212;28;20058;-79
2021/09/29 04:23:38;;;;;;;2.70;1.08;;;;;;;8.20;100.00;93388.88;2115061;28;20087;-79
2021/09/29 04:24:41;;;;;;;3.28;0.85;;;;;;;8.16;100.00;93388.16;2117881;27;20027;-79
2021/09/29 04:25:42;;;;;;;2.30;1.02;;;;;;;8.17;100.00;93394.25;2123839;27;20048;-80
2021/09/29 04:26:43;;;;;;;1.70;0.90;;;;;;;8.21;100.00;93390.41;2124558;27;20054;-80
2021/09/29 04:27:44;;;;;;;2.28;0.90;;;;;;;8.08;100.00;93384.81;2115230;28;20020;-80
2021/09/29 04:28:45;;;;;;;1.77;1.00;;;;;;;8.11;100.00;93383.25;2115178;28;20046;-80
2021/09/29 04:29:46;;;;;;;7.03;1.95;;;;;;;8.09;100.00;93390.88;2114372;28;20023;-78
2021/09/29 04:30:47;;;;;;;4.95;1.52;;;;;;;8.04;100.00;93389.41;2115039;28;20024;-80
2021/09/29 04:31:48;;;;;;;5.68;1.20;;;;;;;8.03;100.00;93390.56;2115919;28;20048;-78
2021/09/29 04:32:49;;;;;;;1.60;0.73;;;;;;;7.97;100.00;93386.78;2115226;28;20504;-80
2021/09/29 04:33:50;;;;;;;0.95;0.90;;;;;;;7.98;100.00;93390.19;2106768;28;20511;-79
2021/09/29 04:34:51;;;;;;;0.98;0.73;;;;;;;7.98;100.00;93392.84;2115291;28;20066;-78
2021/09/29 04:35:52;;;;;;;3.85;1.38;;;;;;;8.13;100.00;93396.19;2115118;28;20031;-79
2021/09/29 04:36:53;;;;;;;1.92;1.00;;;;;;;8.00;100.00;93398.56;2115269;28;20508;-78
2021/09/29 04:37:54;;;;;;;4.25;1.00;;;;;;;7.97;100.00;93392.09;2115114;28;20027;-79
2021/09/29 04:38:55;;;;;;;1.63;0.82;;;;;;;7.95;100.00;93391.75;2115180;28;20047;-80
2021/09/29 04:39:56;;;;;;;3.33;1.00;;;;;;;7.94;100.00;93400.09;2115172;28;20060;-80
2021/09/29 04:40:57;;;;;;;1.40;0.90;;;;;;;8.01;100.00;93400.81;2115183;28;20051;-79
2021/09/29 04:41:58;;;;;;;2.50;1.10;;;;;;;7.97;100.00;93400.09;2115831;28;20388;-80
2021/09/29 04:42:59;;;;;;;1.40;0.80;;;;;;;7.95;100.00;93399.75;2106597;28;20024;-81
2021/09/29 04:44:00;;;;;;;2.95;0.90;;;;;;;7.92;100.00;93407.75;2106808;28;20020;-78
2021/09/29 04:45:01;;;;;;;6.63;1.17;;;;;;;7.91;100.00;93409.66;2115135;28;20023;-81
2021/09/29 04:46:02;;;;;;;4.88;1.30;;;;;;;7.93;100.00;93418.00;2115259;28;20080;-81
2021/09/29 04:47:04;;;;;;;4.47;1.13;;;;;;;7.88;100.00;93410.41;2116181;27;20088;-79
2021/09/29 04:48:05;;;;;;;2.15;1.10;;;;;;;7.76;100.00;93413.53;2122957;27;20023;-78
2021/09/29 04:49:07;;;;;;;1.77;1.08;;;;;;;7.79;100.00;93418.09;2120691;27;20019;-80
2021/09/29 04:50:08;;;;;;;3.42;1.20;;;;;;;7.70;100.00;93417.75;2116914;27;20038;-80
2021/09/29 04:51:09;;;;;;;1.67;0.90;;;;;;;7.68;100.00;93420.03;2099400;28;20025;-78
2021/09/29 04:52:10;;;;;;;1.40;0.90;;;;;;;7.66;100.00;93415.13;2097878;28;20044;-78
2021/09/29 04:53:11;;;;;;;2.80;1.15;;;;;;;7.73;100.00;93422.31;2097351;28;20435;-80